createdAt,value
2018-11-21T00:00:02.237Z,993.99
2018-11-21T00:05:01.557Z,993.93
2018-11-21T00:10:01.821Z,993.87
2018-11-21T00:15:02.094Z,993.87
2018-11-21T00:20:01.429Z,994.06
2018-11-21T00:25:01.677Z,994.03
2018-11-21T00:30:01.945Z,994.25
2018-11-21T00:35:02.217Z,994.35
2018-11-21T00:40:01.520Z,994.18
2018-11-21T00:45:01.805Z,994
2018-11-21T00:50:02.048Z,993.89
2018-11-21T00:55:01.454Z,993.92
2018-11-21T01:00:01.764Z,993.96
2018-11-21T01:05:02.054Z,994.14
2018-11-21T01:10:01.361Z,994.31
2018-11-21T01:15:01.698Z,994.39
2018-11-21T01:20:01.980Z,994.49
2018-11-21T01:25:02.216Z,994.65
2018-11-21T01:30:01.529Z,994.64
2018-11-21T01:35:01.942Z,994.64
2018-11-21T01:40:02.399Z,994.71
2018-11-21T01:45:01.814Z,994.7
2018-11-21T01:50:02.052Z,994.74
2018-11-21T01:55:01.554Z,994.78
2018-11-21T02:00:01.893Z,994.89
2018-11-21T02:05:02.186Z,994.95
2018-11-21T02:10:01.533Z,994.88
2018-11-21T02:15:01.931Z,994.8
2018-11-21T02:20:02.194Z,994.86
2018-11-21T02:25:01.878Z,994.85
2018-11-21T02:30:02.175Z,994.94
2018-11-21T02:35:01.492Z,994.95
2018-11-21T02:40:01.792Z,995.12
2018-11-21T02:45:02.050Z,995.24
2018-11-21T02:50:01.381Z,995.26
2018-11-21T02:55:01.669Z,995.16
2018-11-21T03:00:01.964Z,995.23
2018-11-21T03:05:02.233Z,995.19
2018-11-21T03:10:01.524Z,995.24
2018-11-21T03:15:01.803Z,995.27
2018-11-21T03:20:02.104Z,995.19
2018-11-21T03:25:01.421Z,995.36
2018-11-21T03:30:01.736Z,995.52
2018-11-21T03:35:02.044Z,995.72
2018-11-21T03:40:01.841Z,995.76
2018-11-21T03:45:02.126Z,995.92
2018-11-21T03:50:01.447Z,995.99
2018-11-21T03:55:01.968Z,996.02
2018-11-21T04:00:02.460Z,995.92
2018-11-21T04:05:01.761Z,996.11
2018-11-21T04:10:01.998Z,995.91
2018-11-21T04:15:01.333Z,995.92
2018-11-21T04:20:01.644Z,996.13
2018-11-21T04:25:01.903Z,996.3
2018-11-21T04:30:02.170Z,996.23
2018-11-21T04:35:01.491Z,996.22
2018-11-21T04:40:01.793Z,996.44
2018-11-21T04:45:02.048Z,996.48
2018-11-21T04:50:01.331Z,996.56
2018-11-21T04:55:01.724Z,996.49
2018-11-21T05:00:02.017Z,996.55
2018-11-21T05:05:01.351Z,996.56
2018-11-21T05:10:01.648Z,996.6
2018-11-21T05:15:01.916Z,996.62
2018-11-21T05:20:02.177Z,996.67
2018-11-21T05:25:01.438Z,996.76
2018-11-21T05:30:01.706Z,996.67
2018-11-21T05:35:02.043Z,996.67
2018-11-21T05:40:01.529Z,996.76
2018-11-21T05:45:01.824Z,996.89
2018-11-21T05:50:02.055Z,996.86
2018-11-21T05:55:01.347Z,997.04
2018-11-21T06:00:01.643Z,997.11
2018-11-21T06:05:01.885Z,997.22
2018-11-21T06:10:02.117Z,997.27
2018-11-21T06:15:01.410Z,997.38
2018-11-21T06:20:01.742Z,997.41
2018-11-21T06:25:02.013Z,997.36
2018-11-21T06:30:01.321Z,997.31
2018-11-21T06:35:01.643Z,997.4
2018-11-21T06:40:01.946Z,997.51
2018-11-21T06:45:02.174Z,997.73
2018-11-21T06:50:01.464Z,997.78
2018-11-21T06:55:01.768Z,997.78
2018-11-21T07:00:02.053Z,997.86
2018-11-21T07:05:01.364Z,997.94
2018-11-21T07:10:01.636Z,998.1
2018-11-21T07:15:01.912Z,997.99
2018-11-21T07:20:02.229Z,998.17
2018-11-21T07:25:01.526Z,998.19
2018-11-21T07:30:01.816Z,998.24
2018-11-21T07:35:02.085Z,998.27
2018-11-21T07:40:01.377Z,998.32
2018-11-21T07:45:01.676Z,998.33
2018-11-21T07:50:01.968Z,998.42
2018-11-21T07:55:02.227Z,998.47
2018-11-21T08:00:01.511Z,998.54
2018-11-21T08:05:01.795Z,998.58
2018-11-21T08:10:02.056Z,998.73
2018-11-21T08:15:01.386Z,998.67
2018-11-21T08:20:01.692Z,998.9
2018-11-21T08:25:01.972Z,998.94
2018-11-21T08:30:02.225Z,998.99
2018-11-21T08:35:01.468Z,999.05
2018-11-21T08:40:01.765Z,999.04
2018-11-21T08:45:02.022Z,999.17
2018-11-21T08:50:01.336Z,999.19
2018-11-21T08:55:01.629Z,999.12
2018-11-21T09:00:01.926Z,999.13
2018-11-21T09:05:02.184Z,999.41
2018-11-21T09:10:01.478Z,999.53
2018-11-21T09:15:01.770Z,999.49
2018-11-21T09:20:02.020Z,999.69
2018-11-21T09:25:01.333Z,999.61
2018-11-21T09:30:01.613Z,999.67
2018-11-21T09:35:01.920Z,999.66
2018-11-21T09:40:02.204Z,999.78
2018-11-21T09:45:01.497Z,999.78
2018-11-21T09:50:01.794Z,999.78
2018-11-21T09:55:02.067Z,999.99
2018-11-21T10:00:01.366Z,999.97
2018-11-21T10:05:01.658Z,999.99
2018-11-21T10:10:01.921Z,1000.11
2018-11-21T10:15:02.182Z,1000.11
2018-11-21T10:20:01.442Z,999.96
2018-11-21T10:25:01.771Z,999.88
2018-11-21T10:30:02.059Z,999.98
2018-11-21T10:35:01.411Z,999.89
2018-11-21T10:40:01.699Z,999.91
2018-11-21T10:45:01.984Z,1000.05
2018-11-21T10:50:02.237Z,1000.08
2018-11-21T10:55:01.517Z,1000.1
2018-11-21T11:00:01.780Z,1000.12
2018-11-21T11:05:02.035Z,1000.12
2018-11-21T11:10:01.354Z,1000.12
2018-11-21T11:15:01.652Z,1000.19
2018-11-21T11:20:01.922Z,1000.2
2018-11-21T11:25:02.186Z,1000.17
2018-11-21T11:30:01.487Z,1000.33
2018-11-21T11:35:01.814Z,1000.41
2018-11-21T11:40:02.049Z,1000.36
2018-11-21T11:45:01.355Z,1000.31
2018-11-21T11:50:01.655Z,1000.37
2018-11-21T11:55:01.927Z,1000.42
2018-11-21T12:00:02.183Z,1000.43
2018-11-21T12:05:01.440Z,1000.54
2018-11-21T12:10:01.730Z,1000.61
2018-11-21T12:15:01.991Z,1000.55
2018-11-21T12:20:01.309Z,1000.54
2018-11-21T12:25:01.573Z,1000.62
2018-11-21T12:30:01.861Z,1000.48
2018-11-21T12:35:02.162Z,1000.5
2018-11-21T12:40:01.465Z,1000.46
2018-11-21T12:45:01.773Z,1000.42
2018-11-21T12:50:02.049Z,1000.32
2018-11-21T12:55:01.370Z,1000.35
2018-11-21T13:00:01.687Z,1000.38
2018-11-21T13:05:01.963Z,1000.39
2018-11-21T13:10:02.224Z,1000.58
2018-11-21T13:15:01.499Z,1000.59
2018-11-21T13:20:01.799Z,1000.56
2018-11-21T13:25:02.044Z,1000.46
2018-11-21T13:30:01.347Z,1000.47
2018-11-21T13:35:01.628Z,1000.51
2018-11-21T13:40:01.916Z,1000.64
2018-11-21T13:45:02.219Z,1000.54
2018-11-21T13:50:01.510Z,1000.6
2018-11-21T13:55:01.811Z,1000.63
2018-11-21T14:00:02.110Z,1000.65
2018-11-21T14:05:01.454Z,1000.71
2018-11-21T14:10:02.476Z,1000.78
2018-11-21T14:15:01.779Z,1000.89
2018-11-21T14:20:02.028Z,1000.87
2018-11-21T14:25:01.301Z,1000.88
2018-11-21T14:30:01.582Z,1000.94
2018-11-21T14:35:01.838Z,1000.94
2018-11-21T14:40:02.094Z,1000.97
2018-11-21T14:45:01.349Z,1001.06
2018-11-21T14:50:01.627Z,1001.04
2018-11-21T14:55:01.404Z,1001.08
2018-11-21T15:00:01.725Z,1001.04
2018-11-21T15:05:01.995Z,1001.04
2018-11-21T15:10:01.289Z,1001.05
2018-11-21T15:15:01.577Z,1001.16
2018-11-21T15:20:01.902Z,1001.12
2018-11-21T15:25:02.200Z,1001.16
2018-11-21T15:30:01.482Z,1001.27
2018-11-21T15:35:01.804Z,1001.2
2018-11-21T15:40:02.133Z,1001.25
2018-11-21T15:45:01.422Z,1001.29
2018-11-21T15:50:01.717Z,1001.36
2018-11-21T15:55:02.027Z,1001.35
2018-11-21T16:00:01.355Z,1001.38
2018-11-21T16:05:01.616Z,1001.37
2018-11-21T16:10:01.911Z,1001.37
2018-11-21T16:15:02.208Z,1001.42
2018-11-21T16:20:01.528Z,1001.46
2018-11-21T16:25:01.781Z,1001.6
2018-11-21T16:30:02.032Z,1001.62
2018-11-21T16:35:01.394Z,1001.69
2018-11-21T16:40:01.733Z,1001.72
2018-11-21T16:45:01.979Z,1001.73
2018-11-21T16:50:02.233Z,1001.79
2018-11-21T16:55:01.533Z,1001.8
2018-11-21T17:00:01.835Z,1001.79
2018-11-21T17:05:02.078Z,1001.89
2018-11-21T17:10:01.396Z,1001.85
2018-11-21T17:15:01.687Z,1002.03
2018-11-21T17:20:01.975Z,1002.04
2018-11-21T17:25:02.229Z,1002.07
2018-11-21T17:30:01.505Z,1002.08
2018-11-21T17:35:01.796Z,1002.09
2018-11-21T17:40:02.069Z,1002.05
2018-11-21T17:45:01.393Z,1002.01
2018-11-21T17:50:01.693Z,1002.04
2018-11-21T17:55:02.012Z,1002.07
2018-11-21T18:00:01.304Z,1002.16
2018-11-21T18:05:08.542Z,1002.15
2018-11-21T18:10:01.837Z,1002.12
2018-11-21T18:15:02.103Z,1002.21
2018-11-21T18:20:01.389Z,1002.19
2018-11-21T18:25:01.714Z,1002.31
2018-11-21T18:30:02.030Z,1002.34
2018-11-21T18:35:01.356Z,1002.33
2018-11-21T18:40:01.661Z,1002.37
2018-11-21T18:45:01.982Z,1002.33
2018-11-21T18:50:02.212Z,1002.38
2018-11-21T18:55:01.507Z,1002.42
2018-11-21T19:00:01.795Z,1002.46
2018-11-21T19:05:02.098Z,1002.45
2018-11-21T19:10:01.388Z,1002.47
2018-11-21T19:15:01.685Z,1002.44
2018-11-21T19:20:01.963Z,1002.43
2018-11-21T19:25:02.222Z,1002.5
2018-11-21T19:30:01.488Z,1002.44
2018-11-21T19:35:01.776Z,1002.47
2018-11-21T19:40:02.040Z,1002.48
2018-11-21T19:45:01.351Z,1002.49
2018-11-21T19:50:01.647Z,1002.48
2018-11-21T19:55:01.934Z,1002.54
2018-11-21T20:00:02.199Z,1002.54
2018-11-21T20:05:01.522Z,1002.58
2018-11-21T20:10:01.787Z,1002.62
2018-11-21T20:15:02.045Z,1002.62
2018-11-21T20:20:01.371Z,1002.62
2018-11-21T20:25:01.608Z,1002.59
2018-11-21T20:30:01.851Z,1002.6
2018-11-21T20:35:02.120Z,1002.56
2018-11-21T20:40:01.374Z,1002.62
2018-11-21T20:45:01.598Z,1002.62
2018-11-21T20:50:01.835Z,1002.6
2018-11-21T20:55:02.097Z,1002.57
2018-11-21T21:00:01.325Z,1002.47
2018-11-21T21:05:01.562Z,1002.52
2018-11-21T21:10:01.837Z,1002.53
2018-11-21T21:15:01.276Z,1002.51
2018-11-21T21:20:01.506Z,1002.47
2018-11-21T21:25:01.748Z,1002.51
2018-11-21T21:30:02.016Z,1002.54
2018-11-21T21:35:01.272Z,1002.55
2018-11-21T21:40:01.501Z,1002.47
2018-11-21T21:45:01.759Z,1002.46
2018-11-21T21:50:01.998Z,1002.45
2018-11-21T21:55:01.241Z,1002.43
2018-11-21T22:00:01.471Z,1002.52
2018-11-21T22:05:01.709Z,1002.48
2018-11-21T22:10:01.946Z,1002.51
2018-11-21T22:15:02.209Z,1002.5
2018-11-21T22:20:01.444Z,1002.49
2018-11-21T22:25:01.682Z,1002.5
2018-11-21T22:30:01.911Z,1002.52
2018-11-21T22:35:02.250Z,1002.54
2018-11-21T22:40:01.479Z,1002.55
2018-11-21T22:45:01.714Z,1002.53
2018-11-21T22:50:01.952Z,1002.57
2018-11-21T22:55:02.213Z,1002.53
2018-11-21T23:00:01.457Z,1002.53
2018-11-21T23:05:01.688Z,1002.5
2018-11-21T23:10:01.938Z,1002.57
2018-11-21T23:15:02.196Z,1002.58
2018-11-21T23:20:01.436Z,1002.6
2018-11-21T23:25:01.661Z,1002.56
2018-11-21T23:30:01.918Z,1002.58
2018-11-21T23:35:02.193Z,1002.54
2018-11-21T23:40:01.418Z,1002.55
2018-11-21T23:45:01.711Z,1002.6
2018-11-21T23:50:01.990Z,1002.59
2018-11-21T23:55:01.304Z,1002.55
